Time;durP1;ratioP1;P1;durP2;ratioP2;P2;SDS_P1;SDS_P2;PMS_P1;PMS_P2;Temp;Humidity;BMP_temperature;BMP_pressure;BME280_temperature;BME280_humidity;BME280_pressure;Samples;Min_cycle;Max_cycle;Signal;HPM_P1;HPM_P2
2022/04/09 00:01:03;;;;;;;;;;;14.00;75.60;;;;;;5056081;28;19909;-90
2022/04/09 00:03:28;;;;;;;;;;;13.90;76.00;;;;;;5055906;28;19909;-90
2022/04/09 00:05:54;;;;;;;;;;;13.90;76.00;;;;;;5055963;28;19913;-90
2022/04/09 00:08:19;;;;;;;;;;;13.90;76.30;;;;;;5055852;28;19913;-89
2022/04/09 00:10:45;;;;;;;;;;;13.90;76.40;;;;;;5055915;28;19996;-90
2022/04/09 00:13:11;;;;;;;;;;;13.90;76.70;;;;;;5055863;28;20303;-90
2022/04/09 00:15:36;;;;;;;;;;;13.80;76.80;;;;;;5055794;28;19912;-89
2022/04/09 00:18:02;;;;;;;;;;;13.70;76.30;;;;;;5055756;28;19978;-90
2022/04/09 00:20:28;;;;;;;;;;;13.60;76.20;;;;;;5056031;28;20439;-89
2022/04/09 00:22:53;;;;;;;;;;;13.60;76.90;;;;;;5055441;28;20432;-89
2022/04/09 00:25:24;;;;;;;;;;;13.60;77.00;;;;;;5055661;28;20023;-90
2022/04/09 00:27:52;;;;;;;;;;;13.50;76.80;;;;;;5055759;28;19913;-90
2022/04/09 00:30:19;;;;;;;;;;;13.40;77.10;;;;;;5055494;28;19925;-90
2022/04/09 00:32:44;;;;;;;;;;;13.30;77.20;;;;;;5055875;28;19908;-89
2022/04/09 00:35:10;;;;;;;;;;;13.30;77.70;;;;;;5055428;28;19939;-89
2022/04/09 00:37:45;;;;;;;;;;;13.30;77.70;;;;;;5055676;28;19909;-90
2022/04/09 00:40:11;;;;;;;;;;;13.20;78.00;;;;;;5054994;28;19909;-90
2022/04/09 00:42:37;;;;;;;;;;;13.20;78.10;;;;;;5055084;28;20329;-89
2022/04/09 00:45:02;;;;;;;;;;;13.20;78.30;;;;;;5055541;28;19912;-90
2022/04/09 00:47:28;;;;;;;;;;;13.30;78.20;;;;;;5054912;28;20394;-89
2022/04/09 00:49:53;;;;;;;;;;;13.30;77.90;;;;;;5055185;28;19909;-89
2022/04/09 00:52:20;;;;;;;;;;;13.30;77.70;;;;;;5054989;28;19916;-89
2022/04/09 00:54:47;;;;;;;;;;;13.40;77.90;;;;;;5055042;28;19916;-89
2022/04/09 00:57:14;;;;;;;;;;;13.40;77.80;;;;;;5055093;28;19913;-90
2022/04/09 00:59:41;;;;;;;;;;;13.40;77.50;;;;;;5055028;28;19909;-89
2022/04/09 01:02:08;;;;;;;;;;;13.40;77.20;;;;;;5054717;28;19923;-89
2022/04/09 01:04:33;;;;;;;;;;;13.40;78.10;;;;;;5054933;28;19908;-89
2022/04/09 01:06:59;;;;;;;;;;;13.30;78.80;;;;;;5054756;28;19936;-89
2022/04/09 01:09:25;;;;;;;;;;;13.40;77.90;;;;;;5054820;28;19909;-89
2022/04/09 01:11:51;;;;;;;;;;;13.50;77.80;;;;;;5054686;28;19913;-89
2022/04/09 01:14:17;;;;;;;;;;;13.60;78.20;;;;;;5054988;28;19916;-90
2022/04/09 01:16:42;;;;;;;;;;;13.50;78.40;;;;;;5054682;28;20366;-89
2022/04/09 01:19:08;;;;;;;;;;;13.60;77.90;;;;;;5054572;28;19916;-90
2022/04/09 01:21:34;;;;;;;;;;;13.60;77.60;;;;;;5054616;28;19916;-89
2022/04/09 01:24:01;;;;;;;;;;;13.70;77.60;;;;;;5054375;28;19940;-89
2022/04/09 01:26:26;;;;;;;;;;;13.70;77.60;;;;;;5054481;28;19909;-88
2022/04/09 01:28:52;;;;;;;;;;;13.60;77.50;;;;;;5054402;28;19919;-89
2022/04/09 01:31:18;;;;;;;;;;;13.60;77.60;;;;;;5054265;28;20359;-89
2022/04/09 01:33:43;;;;;;;;;;;13.60;78.50;;;;;;5054137;28;19920;-89
2022/04/09 01:36:09;;;;;;;;;;;13.60;78.20;;;;;;5054302;28;19909;-89
2022/04/09 01:38:35;;;;;;;;;;;13.50;79.10;;;;;;5054106;28;20436;-89
2022/04/09 01:41:01;;;;;;;;;;;13.40;78.30;;;;;;5054019;28;19986;-90
2022/04/09 01:43:27;;;;;;;;;;;13.30;77.60;;;;;;5054282;28;19956;-90
2022/04/09 01:45:52;;;;;;;;;;;13.10;78.50;;;;;;5054230;28;19915;-90
2022/04/09 01:48:18;;;;;;;;;;;13.00;79.10;;;;;;5053813;28;20016;-90
2022/04/09 01:50:43;;;;;;;;;;;12.90;80.00;;;;;;5053877;28;20027;-90
2022/04/09 01:53:09;;;;;;;;;;;12.60;81.30;;;;;;5053335;28;19913;-90
2022/04/09 01:55:35;;;;;;;;;;;12.40;82.80;;;;;;5053954;28;19909;-89
2022/04/09 01:58:00;;;;;;;;;;;12.30;84.00;;;;;;5053894;28;19909;-89
2022/04/09 02:00:26;;;;;;;;;;;12.10;84.70;;;;;;5053676;28;19909;-89
2022/04/09 02:02:52;;;;;;;;;;;12.00;85.50;;;;;;5053812;28;19959;-90
2022/04/09 02:05:18;;;;;;;;;;;11.90;86.00;;;;;;5053835;28;19960;-90
2022/04/09 02:07:44;;;;;;;;;;;11.60;85.90;;;;;;5053652;28;19952;-90
2022/04/09 02:10:10;;;;;;;;;;;11.40;86.10;;;;;;5053393;28;19913;-89
2022/04/09 02:12:36;;;;;;;;;;;11.30;86.20;;;;;;5053678;28;19909;-89
2022/04/09 02:15:05;;;;;;;;;;;11.30;86.30;;;;;;5053607;28;19913;-90
2022/04/09 02:17:31;;;;;;;;;;;11.30;87.00;;;;;;5053649;28;19908;-90
2022/04/09 02:19:57;;;;;;;;;;;11.30;87.20;;;;;;5053553;28;19935;-90
2022/04/09 02:22:23;;;;;;;;;;;11.30;87.10;;;;;;5053546;28;19916;-89
2022/04/09 02:24:49;;;;;;;;;;;11.30;87.10;;;;;;5053431;28;19936;-89
2022/04/09 02:27:15;;;;;;;;;;;11.20;87.20;;;;;;5053335;28;19920;-90
2022/04/09 02:29:40;;;;;;;;;;;11.20;87.60;;;;;;5053178;28;19912;-89
2022/04/09 02:32:06;;;;;;;;;;;11.10;88.20;;;;;;5053175;28;19913;-89
2022/04/09 02:34:32;;;;;;;;;;;11.20;88.70;;;;;;5053368;28;19948;-89
2022/04/09 02:36:57;;;;;;;;;;;11.20;89.30;;;;;;5053069;28;20366;-89
2022/04/09 02:39:23;;;;;;;;;;;11.20;89.60;;;;;;5053227;28;19932;-89
2022/04/09 02:41:50;;;;;;;;;;;11.20;90.00;;;;;;5053196;28;19909;-90
2022/04/09 02:44:17;;;;;;;;;;;11.20;89.70;;;;;;5053232;28;19908;-90
2022/04/09 02:46:43;;;;;;;;;;;11.20;89.70;;;;;;5052829;28;20011;-90
2022/04/09 02:49:09;;;;;;;;;;;11.10;89.50;;;;;;5053270;28;19999;-90
2022/04/09 02:51:34;;;;;;;;;;;11.10;89.60;;;;;;5053035;28;19915;-89
2022/04/09 02:54:00;;;;;;;;;;;11.10;89.90;;;;;;5053049;28;19995;-90
2022/04/09 02:56:25;;;;;;;;;;;11.10;90.20;;;;;;5052776;28;20297;-89
2022/04/09 02:58:51;;;;;;;;;;;11.10;90.40;;;;;;5053057;28;19915;-89
2022/04/09 03:01:16;;;;;;;;;;;11.10;90.50;;;;;;5053016;28;19915;-89
2022/04/09 03:03:42;;;;;;;;;;;11.10;90.60;;;;;;5054265;28;20390;-90
2022/04/09 03:06:07;;;;;;;;;;;11.10;90.50;;;;;;5056930;28;20359;-89
2022/04/09 03:08:33;;;;;;;;;;;11.10;90.40;;;;;;5056681;28;19917;-89
2022/04/09 03:10:58;;;;;;;;;;;11.00;90.20;;;;;;5057024;28;19911;-89
2022/04/09 03:13:24;;;;;;;;;;;11.00;89.90;;;;;;5057030;28;19987;-89
2022/04/09 03:15:49;;;;;;;;;;;10.90;89.50;;;;;;5056927;28;20285;-90
2022/04/09 03:18:15;;;;;;;;;;;10.90;89.20;;;;;;5056705;28;19913;-89
2022/04/09 03:20:41;;;;;;;;;;;10.90;88.90;;;;;;5056806;28;19932;-89
2022/04/09 03:23:06;;;;;;;;;;;10.80;89.00;;;;;;5056753;28;19953;-89
2022/04/09 03:25:32;;;;;;;;;;;10.80;89.10;;;;;;5056780;28;19917;-89
2022/04/09 03:27:58;;;;;;;;;;;10.80;88.60;;;;;;5056357;28;19913;-89
2022/04/09 03:30:23;;;;;;;;;;;10.70;88.60;;;;;;5056609;28;19909;-90
2022/04/09 03:32:49;;;;;;;;;;;10.70;89.20;;;;;;5056575;28;19909;-90
2022/04/09 03:35:14;;;;;;;;;;;10.60;89.20;;;;;;5056537;28;20450;-90
2022/04/09 03:37:40;;;;;;;;;;;10.50;89.20;;;;;;5056323;28;19919;-89
2022/04/09 03:40:07;;;;;;;;;;;10.60;89.70;;;;;;5056432;28;19908;-90
2022/04/09 03:42:33;;;;;;;;;;;10.60;90.30;;;;;;5056708;28;19916;-90
2022/04/09 03:44:59;;;;;;;;;;;10.60;90.40;;;;;;5056625;28;19909;-90
2022/04/09 03:47:24;;;;;;;;;;;10.60;90.60;;;;;;5055669;28;19947;-89
2022/04/09 03:49:50;;;;;;;;;;;10.60;90.60;;;;;;5056250;28;19909;-90
2022/04/09 03:52:15;;;;;;;;;;;10.40;89.30;;;;;;5056265;28;20287;-89
2022/04/09 03:54:41;;;;;;;;;;;10.20;89.50;;;;;;5056167;28;19935;-89
2022/04/09 03:57:07;;;;;;;;;;;10.20;89.70;;;;;;5055967;28;19995;-89
2022/04/09 03:59:32;;;;;;;;;;;10.20;89.10;;;;;;5056111;28;19908;-90
2022/04/09 04:01:58;;;;;;;;;;;10.10;89.50;;;;;;5056118;28;20061;-89
2022/04/09 04:04:23;;;;;;;;;;;10.00;89.60;;;;;;5056045;28;20396;-89
2022/04/09 04:06:49;;;;;;;;;;;9.90;91.20;;;;;;5056173;28;20424;-89
2022/04/09 04:09:16;;;;;;;;;;;9.90;91.70;;;;;;5055994;28;20382;-89
2022/04/09 04:11:46;;;;;;;;;;;9.90;91.10;;;;;;5055996;28;19944;-90
2022/04/09 04:14:12;;;;;;;;;;;9.90;91.60;;;;;;5055877;28;19923;-89
2022/04/09 04:16:40;;;;;;;;;;;10.00;91.70;;;;;;5055081;28;19908;-89
2022/04/09 04:19:06;;;;;;;;;;;10.10;91.50;;;;;;5055873;28;19951;-90
2022/04/09 04:21:31;;;;;;;;;;;10.20;91.50;;;;;;5055796;28;20438;-90
2022/04/09 04:23:57;;;;;;;;;;;10.10;90.50;;;;;;5055822;28;19909;-89
2022/04/09 04:26:22;;;;;;;;;;;9.90;90.20;;;;;;5055446;28;19963;-89
2022/04/09 04:28:48;;;;;;;;;;;9.90;89.90;;;;;;5055623;28;19913;-90
2022/04/09 04:31:20;;;;;;;;;;;9.90;90.10;;;;;;5055512;28;19908;-90
2022/04/09 04:33:45;;;;;;;;;;;9.80;90.00;;;;;;5055559;28;19909;-89
2022/04/09 04:36:11;;;;;;;;;;;9.60;89.50;;;;;;5055250;28;20386;-89
2022/04/09 04:38:36;;;;;;;;;;;9.70;90.80;;;;;;5035796;28;19909;-88
2022/04/09 04:41:04;;;;;;;;;;;9.80;91.50;;;;;;5035502;28;19968;-89
2022/04/09 04:43:30;;;;;;;;;;;9.80;91.70;;;;;;5035380;28;19909;-89
2022/04/09 04:45:55;;;;;;;;;;;9.80;91.70;;;;;;5035369;28;20310;-89
2022/04/09 04:48:21;;;;;;;;;;;9.60;91.50;;;;;;5052912;28;20286;-89
2022/04/09 04:50:46;;;;;;;;;;;9.40;91.70;;;;;;5055117;28;19915;-89
2022/04/09 04:53:12;;;;;;;;;;;9.40;91.90;;;;;;5055125;28;19913;-88
2022/04/09 04:55:38;;;;;;;;;;;9.30;91.40;;;;;;5054510;28;19970;-89
2022/04/09 04:58:03;;;;;;;;;;;9.30;91.40;;;;;;5054209;28;19920;-89
2022/04/09 05:00:29;;;;;;;;;;;9.30;91.50;;;;;;5054110;28;19928;-89
2022/04/09 05:02:55;;;;;;;;;;;9.20;91.70;;;;;;5054461;28;20371;-89
2022/04/09 05:05:21;;;;;;;;;;;9.30;92.20;;;;;;5054877;28;19909;-88
2022/04/09 05:07:48;;;;;;;;;;;9.40;92.90;;;;;;5035867;28;20366;-88
2022/04/09 05:10:14;;;;;;;;;;;9.40;93.00;;;;;;5054626;28;19970;-89
2022/04/09 05:12:40;;;;;;;;;;;9.50;93.00;;;;;;5054365;28;20375;-89
2022/04/09 05:15:07;;;;;;;;;;;9.70;93.20;;;;;;5054323;28;20383;-89
2022/04/09 05:17:32;;;;;;;;;;;9.40;92.30;;;;;;5053847;28;20028;-88
2022/04/09 05:19:58;;;;;;;;;;;9.40;93.10;;;;;;5054566;28;20379;-89
2022/04/09 05:22:27;;;;;;;;;;;9.40;93.20;;;;;;5054377;28;20299;-89
2022/04/09 05:24:52;;;;;;;;;;;9.60;93.20;;;;;;5052848;28;20019;-89
2022/04/09 05:27:18;;;;;;;;;;;10.00;93.20;;;;;;5052495;28;20015;-89
2022/04/09 05:29:44;;;;;;;;;;;10.30;92.90;;;;;;5054200;28;19936;-89
2022/04/09 05:32:10;;;;;;;;;;;10.60;92.20;;;;;;5052900;28;19913;-89
2022/04/09 05:34:35;;;;;;;;;;;10.50;90.70;;;;;;5053986;28;19913;-89
2022/04/09 05:37:01;;;;;;;;;;;10.40;90.10;;;;;;5053556;28;19913;-88
2022/04/09 05:39:26;;;;;;;;;;;10.30;90.70;;;;;;5053550;28;19913;-88
2022/04/09 05:41:52;;;;;;;;;;;10.30;91.10;;;;;;5053798;28;19952;-88
2022/04/09 05:44:17;;;;;;;;;;;10.30;91.70;;;;;;5054067;28;19939;-89
2022/04/09 05:46:43;;;;;;;;;;;10.40;92.00;;;;;;5053757;28;19963;-88
2022/04/09 05:49:08;;;;;;;;;;;10.50;92.20;;;;;;5048577;28;19960;-88
2022/04/09 05:51:35;;;;;;;;;;;10.60;92.60;;;;;;5045887;28;20296;-89
2022/04/09 05:54:01;;;;;;;;;;;10.70;92.80;;;;;;5053106;28;20031;-89
2022/04/09 05:56:26;;;;;;;;;;;10.80;93.00;;;;;;5048964;28;20445;-89
2022/04/09 05:58:52;;;;;;;;;;;11.00;93.30;;;;;;5033013;28;20463;-89
2022/04/09 06:01:17;;;;;;;;;;;11.10;93.10;;;;;;5049772;28;19948;-89
2022/04/09 06:03:43;;;;;;;;;;;11.20;92.90;;;;;;5049576;28;19952;-89
2022/04/09 06:06:09;;;;;;;;;;;11.30;92.60;;;;;;5048632;28;19958;-89
2022/04/09 06:08:34;;;;;;;;;;;11.30;92.40;;;;;;5046970;28;20015;-88
2022/04/09 06:11:00;;;;;;;;;;;11.40;92.30;;;;;;5045864;28;20408;-88
2022/04/09 06:13:26;;;;;;;;;;;11.50;92.20;;;;;;5049745;28;19912;-89
2022/04/09 06:15:52;;;;;;;;;;;11.60;92.20;;;;;;5047369;28;19952;-89
2022/04/09 06:18:18;;;;;;;;;;;11.70;92.10;;;;;;5041262;28;19979;-88
2022/04/09 06:20:43;;;;;;;;;;;11.80;91.80;;;;;;5050211;28;19917;-88
2022/04/09 06:23:09;;;;;;;;;;;11.80;91.60;;;;;;5050320;28;19920;-88
2022/04/09 06:25:35;;;;;;;;;;;11.90;91.70;;;;;;5050784;28;19974;-88
2022/04/09 06:28:00;;;;;;;;;;;12.00;91.80;;;;;;5052636;28;19999;-88
2022/04/09 06:30:26;;;;;;;;;;;12.10;91.80;;;;;;5052352;28;20003;-89
2022/04/09 06:32:52;;;;;;;;;;;12.20;91.30;;;;;;5047297;28;19912;-89
2022/04/09 06:35:18;;;;;;;;;;;12.20;91.10;;;;;;5047790;28;19913;-89
2022/04/09 06:37:43;;;;;;;;;;;12.30;91.10;;;;;;5044348;28;20340;-89
2022/04/09 06:40:09;;;;;;;;;;;12.40;91.00;;;;;;5048901;28;19913;-89
2022/04/09 06:42:35;;;;;;;;;;;12.60;90.70;;;;;;5046689;28;20395;-89
2022/04/09 06:45:02;;;;;;;;;;;12.70;90.00;;;;;;5048290;28;20274;-89
2022/04/09 06:47:28;;;;;;;;;;;12.80;89.40;;;;;;5054462;22;19952;-89
2022/04/09 06:49:56;;;;;;;;;;;12.90;89.00;;;;;;5035967;28;20442;-89
2022/04/09 06:52:22;;;;;;;;;;;12.90;88.40;;;;;;5038164;28;19932;-88
2022/04/09 06:54:48;;;;;;;;;;;12.80;88.20;;;;;;5029780;28;19913;-88
2022/04/09 06:57:14;;;;;;;;;;;12.90;88.50;;;;;;5038395;28;19964;-89
2022/04/09 06:59:39;;;;;;;;;;;12.90;88.50;;;;;;5028719;28;19967;-89
2022/04/09 07:02:05;;;;;;;;;;;12.80;88.60;;;;;;5030814;28;19959;-88
